sensor_id;sensor_type;location;lat;lon;timestamp;temperature;humidity
5492;DHT22;2768;53.540;10.224;2022-10-03T00:04:18;13.20;1.00
5492;DHT22;2768;53.540;10.224;2022-10-03T00:10:21;13.20;1.00
5492;DHT22;2768;53.540;10.224;2022-10-03T00:16:21;13.10;1.00
5492;DHT22;2768;53.540;10.224;2022-10-03T00:22:25;13.30;1.00
5492;DHT22;2768;53.540;10.224;2022-10-03T00:28:38;13.20;1.00
5492;DHT22;2768;53.540;10.224;2022-10-03T00:34:41;13.20;1.00
5492;DHT22;2768;53.540;10.224;2022-10-03T00:41:02;13.20;1.00
5492;DHT22;2768;53.540;10.224;2022-10-03T00:47:25;13.30;99.90
5492;DHT22;2768;53.540;10.224;2022-10-03T00:53:30;13.40;99.90
5492;DHT22;2768;53.540;10.224;2022-10-03T00:59:41;13.20;99.90
5492;DHT22;2768;53.540;10.224;2022-10-03T01:05:49;13.30;1.00
5492;DHT22;2768;53.540;10.224;2022-10-03T01:11:57;13.40;1.00
5492;DHT22;2768;53.540;10.224;2022-10-03T01:18:09;13.30;1.00
5492;DHT22;2768;53.540;10.224;2022-10-03T01:24:25;13.30;1.00
5492;DHT22;2768;53.540;10.224;2022-10-03T01:30:34;13.30;1.00
5492;DHT22;2768;53.540;10.224;2022-10-03T01:36:36;13.40;1.00
5492;DHT22;2768;53.540;10.224;2022-10-03T01:42:38;13.50;1.00
5492;DHT22;2768;53.540;10.224;2022-10-03T01:48:41;13.50;99.90
5492;DHT22;2768;53.540;10.224;2022-10-03T01:54:41;13.30;99.90
5492;DHT22;2768;53.540;10.224;2022-10-03T02:00:44;13.30;99.90
5492;DHT22;2768;53.540;10.224;2022-10-03T02:06:48;13.40;99.90
5492;DHT22;2768;53.540;10.224;2022-10-03T02:12:48;13.20;99.90
5492;DHT22;2768;53.540;10.224;2022-10-03T02:18:49;13.00;99.90
5492;DHT22;2768;53.540;10.224;2022-10-03T02:24:51;13.00;99.90
5492;DHT22;2768;53.540;10.224;2022-10-03T02:31:05;12.90;99.90
5492;DHT22;2768;53.540;10.224;2022-10-03T02:37:35;12.80;1.00
5492;DHT22;2768;53.540;10.224;2022-10-03T02:43:54;12.80;1.00
5492;DHT22;2768;53.540;10.224;2022-10-03T02:50:23;12.70;99.90
5492;DHT22;2768;53.540;10.224;2022-10-03T02:56:54;12.70;1.00
5492;DHT22;2768;53.540;10.224;2022-10-03T03:03:15;12.70;99.90
5492;DHT22;2768;53.540;10.224;2022-10-03T03:09:25;12.80;99.90
5492;DHT22;2768;53.540;10.224;2022-10-03T03:22:04;12.80;99.90
5492;DHT22;2768;53.540;10.224;2022-10-03T03:28:18;12.70;99.90
5492;DHT22;2768;53.540;10.224;2022-10-03T03:34:20;12.70;99.90
5492;DHT22;2768;53.540;10.224;2022-10-03T03:40:28;12.60;99.90
5492;DHT22;2768;53.540;10.224;2022-10-03T03:46:43;12.60;99.90
5492;DHT22;2768;53.540;10.224;2022-10-03T03:52:49;12.50;99.90
5492;DHT22;2768;53.540;10.224;2022-10-03T03:58:55;12.40;99.90
5492;DHT22;2768;53.540;10.224;2022-10-03T04:05:03;12.30;99.90
5492;DHT22;2768;53.540;10.224;2022-10-03T04:11:10;12.30;99.90
5492;DHT22;2768;53.540;10.224;2022-10-03T04:17:25;12.20;1.00
5492;DHT22;2768;53.540;10.224;2022-10-03T04:23:53;12.40;1.00
5492;DHT22;2768;53.540;10.224;2022-10-03T04:29:59;12.40;1.00
5492;DHT22;2768;53.540;10.224;2022-10-03T04:42:40;12.20;1.00
5492;DHT22;2768;53.540;10.224;2022-10-03T04:48:37;12.20;99.90
5492;DHT22;2768;53.540;10.224;2022-10-03T04:54:44;12.20;1.00
5492;DHT22;2768;53.540;10.224;2022-10-03T05:00:48;12.00;1.00
5492;DHT22;2768;53.540;10.224;2022-10-03T05:06:47;11.90;1.00
5492;DHT22;2768;53.540;10.224;2022-10-03T05:12:52;12.00;1.00
5492;DHT22;2768;53.540;10.224;2022-10-03T05:18:52;11.80;1.00
5492;DHT22;2768;53.540;10.224;2022-10-03T05:24:55;11.90;1.00
5492;DHT22;2768;53.540;10.224;2022-10-03T05:30:58;11.90;1.00
5492;DHT22;2768;53.540;10.224;2022-10-03T05:37:33;11.90;1.00
5492;DHT22;2768;53.540;10.224;2022-10-03T05:43:44;12.10;1.00
5492;DHT22;2768;53.540;10.224;2022-10-03T05:49:59;12.10;1.00
5492;DHT22;2768;53.540;10.224;2022-10-03T05:56:07;12.00;1.00
5492;DHT22;2768;53.540;10.224;2022-10-03T06:08:51;12.10;1.00
5492;DHT22;2768;53.540;10.224;2022-10-03T06:28:13;12.30;1.00
5492;DHT22;2768;53.540;10.224;2022-10-03T06:34:42;12.40;1.00
5492;DHT22;2768;53.540;10.224;2022-10-03T06:41:10;12.40;1.00
5492;DHT22;2768;53.540;10.224;2022-10-03T06:47:19;12.50;1.00
5492;DHT22;2768;53.540;10.224;2022-10-03T06:53:36;12.40;1.00
5492;DHT22;2768;53.540;10.224;2022-10-03T06:59:49;12.50;1.00
5492;DHT22;2768;53.540;10.224;2022-10-03T07:12:50;12.60;1.00
5492;DHT22;2768;53.540;10.224;2022-10-03T07:19:08;12.70;1.00
5492;DHT22;2768;53.540;10.224;2022-10-03T07:31:53;12.80;1.00
5492;DHT22;2768;53.540;10.224;2022-10-03T07:38:12;12.90;1.00
5492;DHT22;2768;53.540;10.224;2022-10-03T07:45:02;13.00;1.00
5492;DHT22;2768;53.540;10.224;2022-10-03T07:51:12;13.00;1.00
5492;DHT22;2768;53.540;10.224;2022-10-03T08:03:55;13.30;1.00
5492;DHT22;2768;53.540;10.224;2022-10-03T08:10:04;13.40;1.00
5492;DHT22;2768;53.540;10.224;2022-10-03T08:16:15;13.50;1.00
5492;DHT22;2768;53.540;10.224;2022-10-03T08:22:24;13.60;1.00
5492;DHT22;2768;53.540;10.224;2022-10-03T08:28:43;13.80;1.00
5492;DHT22;2768;53.540;10.224;2022-10-03T08:42:01;14.20;1.00
5492;DHT22;2768;53.540;10.224;2022-10-03T08:48:30;14.30;1.00
5492;DHT22;2768;53.540;10.224;2022-10-03T08:54:54;14.50;1.00
5492;DHT22;2768;53.540;10.224;2022-10-03T09:01:10;14.60;1.00
5492;DHT22;2768;53.540;10.224;2022-10-03T09:07:19;14.80;1.00
5492;DHT22;2768;53.540;10.224;2022-10-03T09:13:57;14.90;1.00
5492;DHT22;2768;53.540;10.224;2022-10-03T09:20:18;15.00;99.90
5492;DHT22;2768;53.540;10.224;2022-10-03T09:33:01;15.10;99.90
5492;DHT22;2768;53.540;10.224;2022-10-03T09:45:34;15.20;99.90
5492;DHT22;2768;53.540;10.224;2022-10-03T09:51:38;15.20;99.90
5492;DHT22;2768;53.540;10.224;2022-10-03T09:58:00;15.20;99.90
5492;DHT22;2768;53.540;10.224;2022-10-03T10:04:25;15.30;99.90
5492;DHT22;2768;53.540;10.224;2022-10-03T10:11:06;15.50;99.90
5492;DHT22;2768;53.540;10.224;2022-10-03T10:17:42;15.70;99.90
5492;DHT22;2768;53.540;10.224;2022-10-03T10:23:50;16.00;99.90
5492;DHT22;2768;53.540;10.224;2022-10-03T10:30:03;16.10;99.90
5492;DHT22;2768;53.540;10.224;2022-10-03T10:43:08;16.60;99.90
5492;DHT22;2768;53.540;10.224;2022-10-03T10:56:21;16.40;99.90
5492;DHT22;2768;53.540;10.224;2022-10-03T11:16:01;16.70;99.90
5492;DHT22;2768;53.540;10.224;2022-10-03T11:22:38;16.70;99.90
5492;DHT22;2768;53.540;10.224;2022-10-03T11:35:36;16.50;99.90
5492;DHT22;2768;53.540;10.224;2022-10-03T11:41:45;16.50;99.90
5492;DHT22;2768;53.540;10.224;2022-10-03T11:47:44;16.60;99.90
5492;DHT22;2768;53.540;10.224;2022-10-03T11:53:44;16.60;99.90
5492;DHT22;2768;53.540;10.224;2022-10-03T11:59:58;16.60;99.90
5492;DHT22;2768;53.540;10.224;2022-10-03T12:06:06;16.50;99.90
5492;DHT22;2768;53.540;10.224;2022-10-03T12:12:26;16.80;99.90
5492;DHT22;2768;53.540;10.224;2022-10-03T12:18:29;17.10;99.90
5492;DHT22;2768;53.540;10.224;2022-10-03T12:24:26;17.10;99.90
5492;DHT22;2768;53.540;10.224;2022-10-03T12:30:20;17.00;99.90
5492;DHT22;2768;53.540;10.224;2022-10-03T12:36:18;17.00;99.90
5492;DHT22;2768;53.540;10.224;2022-10-03T12:42:24;16.90;99.90
5492;DHT22;2768;53.540;10.224;2022-10-03T12:48:32;16.90;99.90
5492;DHT22;2768;53.540;10.224;2022-10-03T12:54:42;16.70;99.90
5492;DHT22;2768;53.540;10.224;2022-10-03T13:00:43;16.60;99.90
5492;DHT22;2768;53.540;10.224;2022-10-03T13:06:42;16.60;99.90
5492;DHT22;2768;53.540;10.224;2022-10-03T13:13:04;16.70;99.90
5492;DHT22;2768;53.540;10.224;2022-10-03T13:19:08;16.70;99.90
5492;DHT22;2768;53.540;10.224;2022-10-03T13:25:13;16.60;99.90
5492;DHT22;2768;53.540;10.224;2022-10-03T13:31:14;16.60;99.90
5492;DHT22;2768;53.540;10.224;2022-10-03T13:37:14;16.50;99.90
5492;DHT22;2768;53.540;10.224;2022-10-03T13:43:14;16.50;99.90
5492;DHT22;2768;53.540;10.224;2022-10-03T13:49:15;16.50;99.90
5492;DHT22;2768;53.540;10.224;2022-10-03T13:55:43;16.50;99.90
5492;DHT22;2768;53.540;10.224;2022-10-03T14:01:44;16.50;99.90
5492;DHT22;2768;53.540;10.224;2022-10-03T14:07:51;16.50;99.90
5492;DHT22;2768;53.540;10.224;2022-10-03T14:13:58;16.50;99.90
5492;DHT22;2768;53.540;10.224;2022-10-03T14:20:09;16.60;99.90
5492;DHT22;2768;53.540;10.224;2022-10-03T14:26:13;16.80;99.90
5492;DHT22;2768;53.540;10.224;2022-10-03T14:32:15;16.80;99.90
5492;DHT22;2768;53.540;10.224;2022-10-03T14:38:45;16.80;99.90
5492;DHT22;2768;53.540;10.224;2022-10-03T14:44:56;16.80;99.90
5492;DHT22;2768;53.540;10.224;2022-10-03T14:50:53;16.80;99.90
5492;DHT22;2768;53.540;10.224;2022-10-03T14:56:50;16.80;99.90
5492;DHT22;2768;53.540;10.224;2022-10-03T15:02:45;16.80;99.90
5492;DHT22;2768;53.540;10.224;2022-10-03T15:08:41;16.70;99.90
5492;DHT22;2768;53.540;10.224;2022-10-03T15:14:40;16.60;99.90
5492;DHT22;2768;53.540;10.224;2022-10-03T15:20:37;16.60;99.90
5492;DHT22;2768;53.540;10.224;2022-10-03T15:26:34;16.70;99.90
5492;DHT22;2768;53.540;10.224;2022-10-03T15:32:32;16.80;99.90
5492;DHT22;2768;53.540;10.224;2022-10-03T15:38:33;16.80;99.90
5492;DHT22;2768;53.540;10.224;2022-10-03T15:44:29;16.70;99.90
5492;DHT22;2768;53.540;10.224;2022-10-03T15:50:31;16.70;99.90
5492;DHT22;2768;53.540;10.224;2022-10-03T15:56:32;16.60;99.90
5492;DHT22;2768;53.540;10.224;2022-10-03T16:02:32;16.60;99.90
5492;DHT22;2768;53.540;10.224;2022-10-03T16:08:28;16.60;99.90
5492;DHT22;2768;53.540;10.224;2022-10-03T16:14:27;16.50;99.90
5492;DHT22;2768;53.540;10.224;2022-10-03T16:20:24;16.40;99.90
5492;DHT22;2768;53.540;10.224;2022-10-03T16:26:23;16.40;99.90
5492;DHT22;2768;53.540;10.224;2022-10-03T16:32:22;16.20;99.90
5492;DHT22;2768;53.540;10.224;2022-10-03T16:38:20;16.20;99.90
5492;DHT22;2768;53.540;10.224;2022-10-03T16:44:20;16.20;99.90
5492;DHT22;2768;53.540;10.224;2022-10-03T16:50:20;16.20;99.90
5492;DHT22;2768;53.540;10.224;2022-10-03T16:56:19;16.10;99.90
5492;DHT22;2768;53.540;10.224;2022-10-03T17:02:15;16.10;99.90
5492;DHT22;2768;53.540;10.224;2022-10-03T17:08:15;15.90;99.90
5492;DHT22;2768;53.540;10.224;2022-10-03T17:14:34;15.90;99.90
5492;DHT22;2768;53.540;10.224;2022-10-03T17:20:37;15.70;99.90
5492;DHT22;2768;53.540;10.224;2022-10-03T17:26:36;15.80;99.90
5492;DHT22;2768;53.540;10.224;2022-10-03T17:32:35;15.60;99.90
5492;DHT22;2768;53.540;10.224;2022-10-03T17:38:33;15.70;99.90
5492;DHT22;2768;53.540;10.224;2022-10-03T17:44:53;15.60;99.90
5492;DHT22;2768;53.540;10.224;2022-10-03T17:50:53;15.70;99.90
5492;DHT22;2768;53.540;10.224;2022-10-03T17:56:52;15.50;99.90
5492;DHT22;2768;53.540;10.224;2022-10-03T18:02:54;15.40;99.90
5492;DHT22;2768;53.540;10.224;2022-10-03T18:08:51;15.40;99.90
5492;DHT22;2768;53.540;10.224;2022-10-03T18:14:55;15.50;99.90
5492;DHT22;2768;53.540;10.224;2022-10-03T18:20:59;15.40;99.90
5492;DHT22;2768;53.540;10.224;2022-10-03T18:27:06;15.40;99.90
5492;DHT22;2768;53.540;10.224;2022-10-03T18:33:01;15.40;99.90
5492;DHT22;2768;53.540;10.224;2022-10-03T18:39:01;15.40;99.90
5492;DHT22;2768;53.540;10.224;2022-10-03T18:45:01;15.40;99.90
5492;DHT22;2768;53.540;10.224;2022-10-03T18:50:58;15.40;99.90
5492;DHT22;2768;53.540;10.224;2022-10-03T18:57:09;15.40;99.90
5492;DHT22;2768;53.540;10.224;2022-10-03T19:03:11;15.40;99.90
5492;DHT22;2768;53.540;10.224;2022-10-03T19:09:16;15.50;99.90
5492;DHT22;2768;53.540;10.224;2022-10-03T19:15:17;15.40;99.90
5492;DHT22;2768;53.540;10.224;2022-10-03T19:21:16;15.30;99.90
5492;DHT22;2768;53.540;10.224;2022-10-03T19:27:14;15.00;99.90
5492;DHT22;2768;53.540;10.224;2022-10-03T19:33:15;15.00;99.90
5492;DHT22;2768;53.540;10.224;2022-10-03T19:39:14;15.00;99.90
5492;DHT22;2768;53.540;10.224;2022-10-03T19:45:11;15.00;99.90
5492;DHT22;2768;53.540;10.224;2022-10-03T19:51:14;14.90;99.90
5492;DHT22;2768;53.540;10.224;2022-10-03T19:57:16;15.10;99.90
5492;DHT22;2768;53.540;10.224;2022-10-03T20:03:14;15.00;99.90
5492;DHT22;2768;53.540;10.224;2022-10-03T20:09:19;15.10;99.90
5492;DHT22;2768;53.540;10.224;2022-10-03T20:15:19;15.00;99.90
5492;DHT22;2768;53.540;10.224;2022-10-03T20:21:18;14.90;99.90
5492;DHT22;2768;53.540;10.224;2022-10-03T20:27:23;14.90;99.90
5492;DHT22;2768;53.540;10.224;2022-10-03T20:33:22;14.80;99.90
5492;DHT22;2768;53.540;10.224;2022-10-03T20:39:18;14.90;99.90
5492;DHT22;2768;53.540;10.224;2022-10-03T20:45:16;14.80;99.90
5492;DHT22;2768;53.540;10.224;2022-10-03T20:51:20;14.80;99.90
5492;DHT22;2768;53.540;10.224;2022-10-03T20:57:17;14.70;99.90
5492;DHT22;2768;53.540;10.224;2022-10-03T21:03:20;14.80;99.90
5492;DHT22;2768;53.540;10.224;2022-10-03T21:09:16;14.80;99.90
5492;DHT22;2768;53.540;10.224;2022-10-03T21:15:13;14.80;99.90
5492;DHT22;2768;53.540;10.224;2022-10-03T21:21:15;14.90;99.90
5492;DHT22;2768;53.540;10.224;2022-10-03T21:27:14;14.80;99.90
5492;DHT22;2768;53.540;10.224;2022-10-03T21:33:09;14.90;99.90
5492;DHT22;2768;53.540;10.224;2022-10-03T21:39:15;14.90;99.90
5492;DHT22;2768;53.540;10.224;2022-10-03T21:45:19;14.90;99.90
5492;DHT22;2768;53.540;10.224;2022-10-03T21:51:24;14.90;99.90
5492;DHT22;2768;53.540;10.224;2022-10-03T21:57:26;14.90;99.90
5492;DHT22;2768;53.540;10.224;2022-10-03T22:03:21;14.80;99.90
5492;DHT22;2768;53.540;10.224;2022-10-03T22:09:17;14.80;99.90
5492;DHT22;2768;53.540;10.224;2022-10-03T22:15:18;14.80;99.90
5492;DHT22;2768;53.540;10.224;2022-10-03T22:21:20;14.70;99.90
5492;DHT22;2768;53.540;10.224;2022-10-03T22:27:21;14.60;99.90
5492;DHT22;2768;53.540;10.224;2022-10-03T22:33:21;14.60;99.90
5492;DHT22;2768;53.540;10.224;2022-10-03T22:39:19;14.60;99.90
5492;DHT22;2768;53.540;10.224;2022-10-03T22:45:14;14.50;99.90
5492;DHT22;2768;53.540;10.224;2022-10-03T22:51:12;14.50;99.90
5492;DHT22;2768;53.540;10.224;2022-10-03T22:57:08;14.50;99.90
5492;DHT22;2768;53.540;10.224;2022-10-03T23:03:06;14.50;99.90
5492;DHT22;2768;53.540;10.224;2022-10-03T23:09:07;14.40;99.90
5492;DHT22;2768;53.540;10.224;2022-10-03T23:15:05;14.30;99.90
5492;DHT22;2768;53.540;10.224;2022-10-03T23:21:05;14.40;99.90
5492;DHT22;2768;53.540;10.224;2022-10-03T23:33:49;14.00;99.90
5492;DHT22;2768;53.540;10.224;2022-10-03T23:46:17;14.10;99.90
5492;DHT22;2768;53.540;10.224;2022-10-03T23:52:17;14.00;99.90
5492;DHT22;2768;53.540;10.224;2022-10-03T23:58:26;14.00;99.90
